sensor_id;sensor_type;location;lat;lon;timestamp;temperature;humidity
18291;DHT22;9271;48.590;8.866;2023-07-02T00:01:17;20.10;99.90
18291;DHT22;9271;48.590;8.866;2023-07-02T00:03:45;19.90;99.90
18291;DHT22;9271;48.590;8.866;2023-07-02T00:06:11;19.90;99.90
18291;DHT22;9271;48.590;8.866;2023-07-02T00:08:38;19.80;99.90
18291;DHT22;9271;48.590;8.866;2023-07-02T00:11:06;20.00;99.90
18291;DHT22;9271;48.590;8.866;2023-07-02T00:13:32;19.90;99.90
18291;DHT22;9271;48.590;8.866;2023-07-02T00:15:59;19.80;99.90
18291;DHT22;9271;48.590;8.866;2023-07-02T00:18:25;19.90;99.90
18291;DHT22;9271;48.590;8.866;2023-07-02T00:21:00;19.90;99.90
18291;DHT22;9271;48.590;8.866;2023-07-02T00:23:28;19.80;99.90
18291;DHT22;9271;48.590;8.866;2023-07-02T00:25:54;19.70;99.90
18291;DHT22;9271;48.590;8.866;2023-07-02T00:28:21;19.70;99.90
18291;DHT22;9271;48.590;8.866;2023-07-02T00:30:48;19.60;99.90
18291;DHT22;9271;48.590;8.866;2023-07-02T00:33:15;19.70;99.90
18291;DHT22;9271;48.590;8.866;2023-07-02T00:35:42;19.80;99.90
18291;DHT22;9271;48.590;8.866;2023-07-02T00:38:10;19.90;99.90
18291;DHT22;9271;48.590;8.866;2023-07-02T00:40:36;19.90;99.90
18291;DHT22;9271;48.590;8.866;2023-07-02T00:43:03;19.90;99.90
18291;DHT22;9271;48.590;8.866;2023-07-02T00:45:30;19.80;99.90
18291;DHT22;9271;48.590;8.866;2023-07-02T00:47:56;20.00;99.90
18291;DHT22;9271;48.590;8.866;2023-07-02T00:50:25;20.00;99.90
18291;DHT22;9271;48.590;8.866;2023-07-02T00:52:53;19.80;99.90
18291;DHT22;9271;48.590;8.866;2023-07-02T00:55:21;19.60;99.90
18291;DHT22;9271;48.590;8.866;2023-07-02T00:57:48;19.30;99.90
18291;DHT22;9271;48.590;8.866;2023-07-02T01:00:15;19.10;99.90
18291;DHT22;9271;48.590;8.866;2023-07-02T01:02:42;19.30;99.90
18291;DHT22;9271;48.590;8.866;2023-07-02T01:05:14;19.40;99.90
18291;DHT22;9271;48.590;8.866;2023-07-02T01:07:40;19.40;99.90
18291;DHT22;9271;48.590;8.866;2023-07-02T01:10:08;19.30;99.90
18291;DHT22;9271;48.590;8.866;2023-07-02T01:12:36;19.20;99.90
18291;DHT22;9271;48.590;8.866;2023-07-02T01:15:05;19.20;99.90
18291;DHT22;9271;48.590;8.866;2023-07-02T01:17:34;19.10;99.90
18291;DHT22;9271;48.590;8.866;2023-07-02T01:20:08;19.10;99.90
18291;DHT22;9271;48.590;8.866;2023-07-02T01:22:35;19.10;99.90
18291;DHT22;9271;48.590;8.866;2023-07-02T01:25:02;19.00;99.90
18291;DHT22;9271;48.590;8.866;2023-07-02T01:27:29;18.90;99.90
18291;DHT22;9271;48.590;8.866;2023-07-02T01:29:56;18.90;99.90
18291;DHT22;9271;48.590;8.866;2023-07-02T01:32:23;19.10;99.90
18291;DHT22;9271;48.590;8.866;2023-07-02T01:34:50;19.10;99.90
18291;DHT22;9271;48.590;8.866;2023-07-02T01:37:20;19.10;99.90
18291;DHT22;9271;48.590;8.866;2023-07-02T01:39:46;18.90;99.90
18291;DHT22;9271;48.590;8.866;2023-07-02T01:42:14;18.60;99.90
18291;DHT22;9271;48.590;8.866;2023-07-02T01:44:42;18.60;99.90
18291;DHT22;9271;48.590;8.866;2023-07-02T01:47:09;18.60;99.90
18291;DHT22;9271;48.590;8.866;2023-07-02T01:49:36;18.60;99.90
18291;DHT22;9271;48.590;8.866;2023-07-02T01:52:04;18.60;99.90
18291;DHT22;9271;48.590;8.866;2023-07-02T01:54:33;18.60;99.90
18291;DHT22;9271;48.590;8.866;2023-07-02T01:57:00;18.60;99.90
18291;DHT22;9271;48.590;8.866;2023-07-02T01:59:26;18.60;99.90
18291;DHT22;9271;48.590;8.866;2023-07-02T02:01:53;18.70;99.90
18291;DHT22;9271;48.590;8.866;2023-07-02T02:04:20;18.70;99.90
18291;DHT22;9271;48.590;8.866;2023-07-02T02:06:46;18.70;99.90
18291;DHT22;9271;48.590;8.866;2023-07-02T02:09:13;18.80;99.90
18291;DHT22;9271;48.590;8.866;2023-07-02T02:11:43;18.90;99.90
18291;DHT22;9271;48.590;8.866;2023-07-02T02:14:10;19.00;99.90
18291;DHT22;9271;48.590;8.866;2023-07-02T02:16:37;19.00;99.90
18291;DHT22;9271;48.590;8.866;2023-07-02T02:19:04;18.80;99.90
18291;DHT22;9271;48.590;8.866;2023-07-02T02:21:31;18.80;99.90
18291;DHT22;9271;48.590;8.866;2023-07-02T02:23:57;18.60;99.90
18291;DHT22;9271;48.590;8.866;2023-07-02T02:26:24;18.60;99.90
18291;DHT22;9271;48.590;8.866;2023-07-02T02:28:52;18.60;99.90
18291;DHT22;9271;48.590;8.866;2023-07-02T02:31:19;18.70;99.90
18291;DHT22;9271;48.590;8.866;2023-07-02T02:33:46;18.90;99.90
18291;DHT22;9271;48.590;8.866;2023-07-02T02:36:12;19.10;99.90
18291;DHT22;9271;48.590;8.866;2023-07-02T02:38:39;19.20;99.90
18291;DHT22;9271;48.590;8.866;2023-07-02T02:41:06;19.20;99.90
18291;DHT22;9271;48.590;8.866;2023-07-02T02:43:33;19.20;99.90
18291;DHT22;9271;48.590;8.866;2023-07-02T02:46:01;19.20;99.90
18291;DHT22;9271;48.590;8.866;2023-07-02T02:48:28;19.00;99.90
18291;DHT22;9271;48.590;8.866;2023-07-02T02:50:55;19.00;99.90
18291;DHT22;9271;48.590;8.866;2023-07-02T02:53:21;18.90;99.90
18291;DHT22;9271;48.590;8.866;2023-07-02T02:55:48;18.90;99.90
18291;DHT22;9271;48.590;8.866;2023-07-02T02:58:14;18.80;99.90
18291;DHT22;9271;48.590;8.866;2023-07-02T03:00:41;18.90;99.90
18291;DHT22;9271;48.590;8.866;2023-07-02T03:03:12;18.70;99.90
18291;DHT22;9271;48.590;8.866;2023-07-02T03:05:39;18.70;99.90
18291;DHT22;9271;48.590;8.866;2023-07-02T03:08:05;18.60;99.90
18291;DHT22;9271;48.590;8.866;2023-07-02T03:10:32;18.60;99.90
18291;DHT22;9271;48.590;8.866;2023-07-02T03:12:59;18.30;99.90
18291;DHT22;9271;48.590;8.866;2023-07-02T03:15:25;18.10;99.90
18291;DHT22;9271;48.590;8.866;2023-07-02T03:17:52;18.20;99.90
18291;DHT22;9271;48.590;8.866;2023-07-02T03:20:20;18.30;99.90
18291;DHT22;9271;48.590;8.866;2023-07-02T03:22:47;18.30;99.90
18291;DHT22;9271;48.590;8.866;2023-07-02T03:25:14;18.20;99.90
18291;DHT22;9271;48.590;8.866;2023-07-02T03:27:40;18.20;99.90
18291;DHT22;9271;48.590;8.866;2023-07-02T03:30:08;18.10;99.90
18291;DHT22;9271;48.590;8.866;2023-07-02T03:32:34;17.90;99.90
18291;DHT22;9271;48.590;8.866;2023-07-02T03:35:01;17.70;99.90
18291;DHT22;9271;48.590;8.866;2023-07-02T03:37:29;17.80;99.90
18291;DHT22;9271;48.590;8.866;2023-07-02T03:39:56;17.60;99.90
18291;DHT22;9271;48.590;8.866;2023-07-02T03:42:24;17.50;99.90
18291;DHT22;9271;48.590;8.866;2023-07-02T03:44:50;17.60;99.90
18291;DHT22;9271;48.590;8.866;2023-07-02T03:47:17;17.70;99.90
18291;DHT22;9271;48.590;8.866;2023-07-02T03:49:44;17.60;99.90
18291;DHT22;9271;48.590;8.866;2023-07-02T03:52:11;17.60;99.90
18291;DHT22;9271;48.590;8.866;2023-07-02T03:54:39;17.80;99.90
18291;DHT22;9271;48.590;8.866;2023-07-02T03:57:06;18.00;99.90
18291;DHT22;9271;48.590;8.866;2023-07-02T03:59:33;18.10;99.90
18291;DHT22;9271;48.590;8.866;2023-07-02T04:02:00;18.20;99.90
18291;DHT22;9271;48.590;8.866;2023-07-02T04:04:27;18.20;99.90
18291;DHT22;9271;48.590;8.866;2023-07-02T04:06:53;18.20;99.90
18291;DHT22;9271;48.590;8.866;2023-07-02T04:09:20;18.10;99.90
18291;DHT22;9271;48.590;8.866;2023-07-02T04:11:48;18.20;99.90
18291;DHT22;9271;48.590;8.866;2023-07-02T04:14:14;18.20;99.90
18291;DHT22;9271;48.590;8.866;2023-07-02T04:16:43;18.20;99.90
18291;DHT22;9271;48.590;8.866;2023-07-02T04:19:10;18.10;99.90
18291;DHT22;9271;48.590;8.866;2023-07-02T04:21:36;17.80;99.90
18291;DHT22;9271;48.590;8.866;2023-07-02T04:24:04;17.80;99.90
18291;DHT22;9271;48.590;8.866;2023-07-02T04:26:30;17.80;99.90
18291;DHT22;9271;48.590;8.866;2023-07-02T04:28:58;17.70;99.90
18291;DHT22;9271;48.590;8.866;2023-07-02T04:31:25;17.90;99.90
18291;DHT22;9271;48.590;8.866;2023-07-02T04:33:52;18.00;99.90
18291;DHT22;9271;48.590;8.866;2023-07-02T04:36:19;18.00;99.90
18291;DHT22;9271;48.590;8.866;2023-07-02T04:38:45;18.20;99.90
18291;DHT22;9271;48.590;8.866;2023-07-02T04:41:12;18.20;99.90
18291;DHT22;9271;48.590;8.866;2023-07-02T04:43:39;18.20;99.90
18291;DHT22;9271;48.590;8.866;2023-07-02T04:46:06;18.30;99.90
18291;DHT22;9271;48.590;8.866;2023-07-02T04:48:33;18.30;99.90
18291;DHT22;9271;48.590;8.866;2023-07-02T04:51:00;17.90;99.90
18291;DHT22;9271;48.590;8.866;2023-07-02T04:53:26;17.50;99.90
18291;DHT22;9271;48.590;8.866;2023-07-02T04:55:53;17.50;99.90
18291;DHT22;9271;48.590;8.866;2023-07-02T04:58:20;17.80;99.90
18291;DHT22;9271;48.590;8.866;2023-07-02T05:00:46;18.10;99.90
18291;DHT22;9271;48.590;8.866;2023-07-02T05:03:14;18.00;99.90
18291;DHT22;9271;48.590;8.866;2023-07-02T05:05:41;18.20;99.90
18291;DHT22;9271;48.590;8.866;2023-07-02T05:08:08;18.10;99.90
18291;DHT22;9271;48.590;8.866;2023-07-02T05:10:34;17.80;99.90
18291;DHT22;9271;48.590;8.866;2023-07-02T05:13:01;18.10;99.90
18291;DHT22;9271;48.590;8.866;2023-07-02T05:15:27;18.10;99.90
18291;DHT22;9271;48.590;8.866;2023-07-02T05:17:54;17.90;99.90
18291;DHT22;9271;48.590;8.866;2023-07-02T05:20:22;18.20;99.90
18291;DHT22;9271;48.590;8.866;2023-07-02T05:22:49;18.20;99.90
18291;DHT22;9271;48.590;8.866;2023-07-02T05:25:15;18.00;99.90
18291;DHT22;9271;48.590;8.866;2023-07-02T05:27:42;18.40;99.90
18291;DHT22;9271;48.590;8.866;2023-07-02T05:30:10;18.50;99.90
18291;DHT22;9271;48.590;8.866;2023-07-02T05:32:36;18.50;99.90
18291;DHT22;9271;48.590;8.866;2023-07-02T05:35:05;18.50;99.90
18291;DHT22;9271;48.590;8.866;2023-07-02T05:37:33;18.10;99.90
18291;DHT22;9271;48.590;8.866;2023-07-02T05:39:59;17.90;99.90
18291;DHT22;9271;48.590;8.866;2023-07-02T05:42:26;17.60;99.90
18291;DHT22;9271;48.590;8.866;2023-07-02T05:44:52;17.60;99.90
18291;DHT22;9271;48.590;8.866;2023-07-02T05:47:19;17.60;99.90
18291;DHT22;9271;48.590;8.866;2023-07-02T05:49:46;17.80;99.90
18291;DHT22;9271;48.590;8.866;2023-07-02T05:52:12;17.70;99.90
18291;DHT22;9271;48.590;8.866;2023-07-02T05:54:41;17.80;99.90
18291;DHT22;9271;48.590;8.866;2023-07-02T05:57:07;17.80;99.90
18291;DHT22;9271;48.590;8.866;2023-07-02T05:59:34;18.50;99.90
18291;DHT22;9271;48.590;8.866;2023-07-02T06:02:01;18.60;99.90
18291;DHT22;9271;48.590;8.866;2023-07-02T06:04:27;18.60;99.90
18291;DHT22;9271;48.590;8.866;2023-07-02T06:06:54;18.20;99.90
18291;DHT22;9271;48.590;8.866;2023-07-02T06:09:20;18.20;99.90
18291;DHT22;9271;48.590;8.866;2023-07-02T06:11:48;18.20;99.90
18291;DHT22;9271;48.590;8.866;2023-07-02T06:14:15;18.60;99.90
18291;DHT22;9271;48.590;8.866;2023-07-02T06:16:42;19.00;99.90
18291;DHT22;9271;48.590;8.866;2023-07-02T06:19:09;19.60;99.90
18291;DHT22;9271;48.590;8.866;2023-07-02T06:21:36;20.10;99.90
18291;DHT22;9271;48.590;8.866;2023-07-02T06:24:03;19.30;99.90
18291;DHT22;9271;48.590;8.866;2023-07-02T06:26:30;19.20;99.90
18291;DHT22;9271;48.590;8.866;2023-07-02T06:28:58;19.60;99.90
18291;DHT22;9271;48.590;8.866;2023-07-02T06:31:25;19.60;99.90
18291;DHT22;9271;48.590;8.866;2023-07-02T06:33:52;19.50;99.90
18291;DHT22;9271;48.590;8.866;2023-07-02T06:36:19;19.90;99.90
18291;DHT22;9271;48.590;8.866;2023-07-02T06:38:46;20.00;99.90
18291;DHT22;9271;48.590;8.866;2023-07-02T06:41:12;20.60;99.90
18291;DHT22;9271;48.590;8.866;2023-07-02T06:43:41;20.90;98.50
18291;DHT22;9271;48.590;8.866;2023-07-02T06:46:11;20.00;99.90
18291;DHT22;9271;48.590;8.866;2023-07-02T06:48:38;19.50;99.60
18291;DHT22;9271;48.590;8.866;2023-07-02T06:51:05;19.10;99.90
18291;DHT22;9271;48.590;8.866;2023-07-02T06:53:32;19.20;99.90
18291;DHT22;9271;48.590;8.866;2023-07-02T06:55:59;19.70;99.90
18291;DHT22;9271;48.590;8.866;2023-07-02T06:58:25;20.00;99.90
18291;DHT22;9271;48.590;8.866;2023-07-02T07:00:52;20.50;99.90
18291;DHT22;9271;48.590;8.866;2023-07-02T07:03:20;21.00;98.70
18291;DHT22;9271;48.590;8.866;2023-07-02T07:05:46;21.20;98.50
18291;DHT22;9271;48.590;8.866;2023-07-02T07:08:13;21.30;97.70
18291;DHT22;9271;48.590;8.866;2023-07-02T07:10:40;21.30;98.10
18291;DHT22;9271;48.590;8.866;2023-07-02T07:13:07;20.60;98.00
18291;DHT22;9271;48.590;8.866;2023-07-02T07:15:34;20.90;98.20
18291;DHT22;9271;48.590;8.866;2023-07-02T07:18:00;21.00;98.40
18291;DHT22;9271;48.590;8.866;2023-07-02T07:20:29;21.00;97.50
18291;DHT22;9271;48.590;8.866;2023-07-02T07:22:56;20.50;97.20
18291;DHT22;9271;48.590;8.866;2023-07-02T07:25:22;20.10;97.50
18291;DHT22;9271;48.590;8.866;2023-07-02T07:27:49;19.70;99.50
18291;DHT22;9271;48.590;8.866;2023-07-02T07:30:16;20.30;98.60
18291;DHT22;9271;48.590;8.866;2023-07-02T07:32:48;20.90;97.90
18291;DHT22;9271;48.590;8.866;2023-07-02T07:35:15;21.50;96.00
18291;DHT22;9271;48.590;8.866;2023-07-02T07:37:43;20.90;95.60
18291;DHT22;9271;48.590;8.866;2023-07-02T07:40:10;20.10;96.70
18291;DHT22;9271;48.590;8.866;2023-07-02T07:42:37;20.60;96.80
18291;DHT22;9271;48.590;8.866;2023-07-02T07:45:05;21.30;96.20
18291;DHT22;9271;48.590;8.866;2023-07-02T07:47:31;22.40;95.00
18291;DHT22;9271;48.590;8.866;2023-07-02T07:49:58;22.00;94.10
18291;DHT22;9271;48.590;8.866;2023-07-02T07:52:25;22.10;94.70
18291;DHT22;9271;48.590;8.866;2023-07-02T07:54:53;22.10;94.10
18291;DHT22;9271;48.590;8.866;2023-07-02T07:57:19;22.90;92.80
18291;DHT22;9271;48.590;8.866;2023-07-02T07:59:46;23.40;91.80
18291;DHT22;9271;48.590;8.866;2023-07-02T08:02:12;23.40;90.50
18291;DHT22;9271;48.590;8.866;2023-07-02T08:04:39;23.30;92.30
18291;DHT22;9271;48.590;8.866;2023-07-02T08:07:06;23.50;90.70
18291;DHT22;9271;48.590;8.866;2023-07-02T08:09:34;23.10;92.50
18291;DHT22;9271;48.590;8.866;2023-07-02T08:12:03;24.00;90.80
18291;DHT22;9271;48.590;8.866;2023-07-02T08:14:29;24.30;91.10
18291;DHT22;9271;48.590;8.866;2023-07-02T08:16:56;24.20;90.30
18291;DHT22;9271;48.590;8.866;2023-07-02T08:19:22;24.50;91.10
18291;DHT22;9271;48.590;8.866;2023-07-02T08:21:50;24.90;88.40
18291;DHT22;9271;48.590;8.866;2023-07-02T08:24:16;24.40;88.00
18291;DHT22;9271;48.590;8.866;2023-07-02T08:26:43;24.60;87.70
18291;DHT22;9271;48.590;8.866;2023-07-02T08:29:12;24.50;87.60
18291;DHT22;9271;48.590;8.866;2023-07-02T08:31:40;22.80;90.00
18291;DHT22;9271;48.590;8.866;2023-07-02T08:34:06;22.00;90.90
18291;DHT22;9271;48.590;8.866;2023-07-02T08:36:33;21.70;92.00
18291;DHT22;9271;48.590;8.866;2023-07-02T08:39:00;21.90;91.40
18291;DHT22;9271;48.590;8.866;2023-07-02T08:41:27;21.60;91.60
18291;DHT22;9271;48.590;8.866;2023-07-02T08:43:55;21.50;91.30
18291;DHT22;9271;48.590;8.866;2023-07-02T08:46:24;21.50;91.60
18291;DHT22;9271;48.590;8.866;2023-07-02T08:48:50;21.50;92.00
18291;DHT22;9271;48.590;8.866;2023-07-02T08:51:17;21.40;91.70
18291;DHT22;9271;48.590;8.866;2023-07-02T08:53:44;21.10;92.20
18291;DHT22;9271;48.590;8.866;2023-07-02T08:56:11;21.10;92.30
18291;DHT22;9271;48.590;8.866;2023-07-02T08:58:37;21.60;91.50
18291;DHT22;9271;48.590;8.866;2023-07-02T09:01:05;21.60;91.70
18291;DHT22;9271;48.590;8.866;2023-07-02T09:03:34;21.60;91.30
18291;DHT22;9271;48.590;8.866;2023-07-02T09:06:02;22.10;90.40
18291;DHT22;9271;48.590;8.866;2023-07-02T09:08:29;22.20;88.70
18291;DHT22;9271;48.590;8.866;2023-07-02T09:11:08;22.60;86.90
18291;DHT22;9271;48.590;8.866;2023-07-02T09:13:42;23.00;85.40
18291;DHT22;9271;48.590;8.866;2023-07-02T09:16:23;23.00;87.70
18291;DHT22;9271;48.590;8.866;2023-07-02T09:18:59;22.90;85.40
18291;DHT22;9271;48.590;8.866;2023-07-02T09:21:26;22.90;84.80
18291;DHT22;9271;48.590;8.866;2023-07-02T09:23:54;23.00;87.00
18291;DHT22;9271;48.590;8.866;2023-07-02T09:26:21;23.00;84.70
18291;DHT22;9271;48.590;8.866;2023-07-02T09:28:48;23.20;85.70
18291;DHT22;9271;48.590;8.866;2023-07-02T09:31:14;23.10;85.50
18291;DHT22;9271;48.590;8.866;2023-07-02T09:33:42;23.40;84.20
18291;DHT22;9271;48.590;8.866;2023-07-02T09:36:11;23.70;83.00
18291;DHT22;9271;48.590;8.866;2023-07-02T09:38:38;23.70;82.40
18291;DHT22;9271;48.590;8.866;2023-07-02T09:41:05;23.70;82.40
18291;DHT22;9271;48.590;8.866;2023-07-02T09:43:33;23.80;81.30
18291;DHT22;9271;48.590;8.866;2023-07-02T09:46:00;24.40;80.60
18291;DHT22;9271;48.590;8.866;2023-07-02T09:48:28;24.60;79.10
18291;DHT22;9271;48.590;8.866;2023-07-02T09:50:58;24.30;80.70
18291;DHT22;9271;48.590;8.866;2023-07-02T09:53:28;24.20;80.10
18291;DHT22;9271;48.590;8.866;2023-07-02T09:55:55;24.60;80.50
18291;DHT22;9271;48.590;8.866;2023-07-02T09:58:22;25.20;75.90
18291;DHT22;9271;48.590;8.866;2023-07-02T10:00:49;25.30;71.50
18291;DHT22;9271;48.590;8.866;2023-07-02T10:03:16;24.20;74.40
18291;DHT22;9271;48.590;8.866;2023-07-02T10:05:42;23.70;74.50
18291;DHT22;9271;48.590;8.866;2023-07-02T10:08:13;24.40;75.60
18291;DHT22;9271;48.590;8.866;2023-07-02T10:10:43;25.30;71.90
18291;DHT22;9271;48.590;8.866;2023-07-02T10:13:10;25.30;69.10
18291;DHT22;9271;48.590;8.866;2023-07-02T10:15:37;24.90;71.40
18291;DHT22;9271;48.590;8.866;2023-07-02T10:18:05;25.20;71.30
18291;DHT22;9271;48.590;8.866;2023-07-02T10:20:33;25.90;70.50
18291;DHT22;9271;48.590;8.866;2023-07-02T10:23:00;25.40;68.70
18291;DHT22;9271;48.590;8.866;2023-07-02T10:25:29;24.60;69.50
18291;DHT22;9271;48.590;8.866;2023-07-02T10:27:57;24.70;68.30
18291;DHT22;9271;48.590;8.866;2023-07-02T10:30:32;24.50;68.80
18291;DHT22;9271;48.590;8.866;2023-07-02T10:33:09;24.70;68.10
18291;DHT22;9271;48.590;8.866;2023-07-02T10:35:36;24.20;70.10
18291;DHT22;9271;48.590;8.866;2023-07-02T10:38:03;23.70;70.00
18291;DHT22;9271;48.590;8.866;2023-07-02T10:40:31;23.00;71.20
18291;DHT22;9271;48.590;8.866;2023-07-02T10:43:00;23.70;70.10
18291;DHT22;9271;48.590;8.866;2023-07-02T10:45:33;23.90;69.60
18291;DHT22;9271;48.590;8.866;2023-07-02T10:48:02;24.80;68.90
18291;DHT22;9271;48.590;8.866;2023-07-02T10:50:30;26.30;67.30
18291;DHT22;9271;48.590;8.866;2023-07-02T10:52:57;26.30;62.70
18291;DHT22;9271;48.590;8.866;2023-07-02T10:55:25;25.70;63.90
18291;DHT22;9271;48.590;8.866;2023-07-02T10:58:04;25.20;64.90
18291;DHT22;9271;48.590;8.866;2023-07-02T11:00:31;24.60;66.90
18291;DHT22;9271;48.590;8.866;2023-07-02T11:02:58;25.20;66.00
18291;DHT22;9271;48.590;8.866;2023-07-02T11:05:24;26.30;67.80
18291;DHT22;9271;48.590;8.866;2023-07-02T11:07:51;26.50;65.10
18291;DHT22;9271;48.590;8.866;2023-07-02T11:10:23;27.30;60.30
18291;DHT22;9271;48.590;8.866;2023-07-02T11:12:50;27.40;58.30
18291;DHT22;9271;48.590;8.866;2023-07-02T11:15:18;26.90;58.80
18291;DHT22;9271;48.590;8.866;2023-07-02T11:17:45;27.20;64.10
18291;DHT22;9271;48.590;8.866;2023-07-02T11:20:13;28.00;58.10
18291;DHT22;9271;48.590;8.866;2023-07-02T11:22:40;27.50;58.90
18291;DHT22;9271;48.590;8.866;2023-07-02T11:25:11;27.30;57.30
18291;DHT22;9271;48.590;8.866;2023-07-02T11:27:38;27.30;58.80
18291;DHT22;9271;48.590;8.866;2023-07-02T11:30:06;27.50;57.40
18291;DHT22;9271;48.590;8.866;2023-07-02T11:32:47;27.10;55.60
18291;DHT22;9271;48.590;8.866;2023-07-02T11:35:15;25.70;58.00
18291;DHT22;9271;48.590;8.866;2023-07-02T11:37:42;25.30;58.40
18291;DHT22;9271;48.590;8.866;2023-07-02T11:40:09;26.20;59.10
18291;DHT22;9271;48.590;8.866;2023-07-02T11:42:36;27.00;55.80
18291;DHT22;9271;48.590;8.866;2023-07-02T11:45:04;27.20;58.00
18291;DHT22;9271;48.590;8.866;2023-07-02T11:47:30;27.90;55.60
18291;DHT22;9271;48.590;8.866;2023-07-02T11:49:58;26.50;54.60
18291;DHT22;9271;48.590;8.866;2023-07-02T11:52:25;26.30;54.50
18291;DHT22;9271;48.590;8.866;2023-07-02T11:54:52;27.40;56.50
18291;DHT22;9271;48.590;8.866;2023-07-02T11:57:19;27.90;57.00
18291;DHT22;9271;48.590;8.866;2023-07-02T11:59:47;27.80;54.60
18291;DHT22;9271;48.590;8.866;2023-07-02T12:02:14;28.10;54.60
18291;DHT22;9271;48.590;8.866;2023-07-02T12:04:41;28.40;50.60
18291;DHT22;9271;48.590;8.866;2023-07-02T12:07:09;26.90;53.00
18291;DHT22;9271;48.590;8.866;2023-07-02T12:09:36;28.10;53.10
18291;DHT22;9271;48.590;8.866;2023-07-02T12:12:03;28.50;49.70
18291;DHT22;9271;48.590;8.866;2023-07-02T12:14:30;28.30;50.00
18291;DHT22;9271;48.590;8.866;2023-07-02T12:16:57;28.20;51.90
18291;DHT22;9271;48.590;8.866;2023-07-02T12:19:23;30.30;47.30
18291;DHT22;9271;48.590;8.866;2023-07-02T12:21:50;31.40;46.80
18291;DHT22;9271;48.590;8.866;2023-07-02T12:24:18;31.70;44.50
18291;DHT22;9271;48.590;8.866;2023-07-02T12:26:45;31.40;43.40
18291;DHT22;9271;48.590;8.866;2023-07-02T12:29:11;32.30;43.90
18291;DHT22;9271;48.590;8.866;2023-07-02T12:31:38;33.00;44.60
18291;DHT22;9271;48.590;8.866;2023-07-02T12:34:04;32.40;40.30
18291;DHT22;9271;48.590;8.866;2023-07-02T12:36:31;32.00;40.00
18291;DHT22;9271;48.590;8.866;2023-07-02T12:38:58;29.50;42.30
18291;DHT22;9271;48.590;8.866;2023-07-02T12:41:26;29.60;44.30
18291;DHT22;9271;48.590;8.866;2023-07-02T12:43:53;30.50;43.60
18291;DHT22;9271;48.590;8.866;2023-07-02T12:46:20;30.70;41.00
18291;DHT22;9271;48.590;8.866;2023-07-02T12:48:47;30.50;41.90
18291;DHT22;9271;48.590;8.866;2023-07-02T12:51:13;28.90;42.90
18291;DHT22;9271;48.590;8.866;2023-07-02T12:53:40;27.90;45.00
18291;DHT22;9271;48.590;8.866;2023-07-02T12:56:06;28.30;46.30
18291;DHT22;9271;48.590;8.866;2023-07-02T12:58:34;29.10;44.20
18291;DHT22;9271;48.590;8.866;2023-07-02T13:01:01;30.40;41.30
18291;DHT22;9271;48.590;8.866;2023-07-02T13:03:30;30.70;42.50
18291;DHT22;9271;48.590;8.866;2023-07-02T13:05:57;32.00;39.40
18291;DHT22;9271;48.590;8.866;2023-07-02T13:08:23;32.80;39.00
18291;DHT22;9271;48.590;8.866;2023-07-02T13:10:50;32.70;38.30
18291;DHT22;9271;48.590;8.866;2023-07-02T13:13:17;31.40;41.00
18291;DHT22;9271;48.590;8.866;2023-07-02T13:15:45;31.70;39.60
18291;DHT22;9271;48.590;8.866;2023-07-02T13:18:11;32.60;39.70
18291;DHT22;9271;48.590;8.866;2023-07-02T13:20:38;32.30;39.00
18291;DHT22;9271;48.590;8.866;2023-07-02T13:23:05;32.40;37.70
18291;DHT22;9271;48.590;8.866;2023-07-02T13:25:31;31.90;40.60
18291;DHT22;9271;48.590;8.866;2023-07-02T13:27:58;32.60;39.60
18291;DHT22;9271;48.590;8.866;2023-07-02T13:30:24;32.80;37.00
18291;DHT22;9271;48.590;8.866;2023-07-02T13:32:54;31.70;38.60
18291;DHT22;9271;48.590;8.866;2023-07-02T13:35:20;31.70;39.50
18291;DHT22;9271;48.590;8.866;2023-07-02T13:37:48;31.30;39.40
18291;DHT22;9271;48.590;8.866;2023-07-02T13:40:14;30.20;44.00
18291;DHT22;9271;48.590;8.866;2023-07-02T13:42:41;30.60;41.10
18291;DHT22;9271;48.590;8.866;2023-07-02T13:45:09;31.20;42.60
18291;DHT22;9271;48.590;8.866;2023-07-02T13:47:36;32.10;39.40
18291;DHT22;9271;48.590;8.866;2023-07-02T13:50:05;32.30;39.20
18291;DHT22;9271;48.590;8.866;2023-07-02T13:52:32;33.40;39.90
18291;DHT22;9271;48.590;8.866;2023-07-02T13:54:59;33.40;38.80
18291;DHT22;9271;48.590;8.866;2023-07-02T13:57:25;31.60;40.50
18291;DHT22;9271;48.590;8.866;2023-07-02T13:59:53;32.80;39.50
18291;DHT22;9271;48.590;8.866;2023-07-02T14:02:20;31.40;40.30
18291;DHT22;9271;48.590;8.866;2023-07-02T14:04:47;29.40;42.70
18291;DHT22;9271;48.590;8.866;2023-07-02T14:07:14;30.10;41.50
18291;DHT22;9271;48.590;8.866;2023-07-02T14:09:40;30.10;42.50
18291;DHT22;9271;48.590;8.866;2023-07-02T14:12:08;29.80;43.10
18291;DHT22;9271;48.590;8.866;2023-07-02T14:14:34;29.10;44.90
18291;DHT22;9271;48.590;8.866;2023-07-02T14:17:02;29.30;44.70
18291;DHT22;9271;48.590;8.866;2023-07-02T14:19:29;29.40;47.20
18291;DHT22;9271;48.590;8.866;2023-07-02T14:21:56;29.70;45.10
18291;DHT22;9271;48.590;8.866;2023-07-02T14:24:22;28.20;46.20
18291;DHT22;9271;48.590;8.866;2023-07-02T14:26:49;28.30;48.00
18291;DHT22;9271;48.590;8.866;2023-07-02T14:29:16;28.10;49.00
18291;DHT22;9271;48.590;8.866;2023-07-02T14:31:42;29.10;47.90
18291;DHT22;9271;48.590;8.866;2023-07-02T14:34:10;30.00;44.70
18291;DHT22;9271;48.590;8.866;2023-07-02T14:36:37;29.70;46.00
18291;DHT22;9271;48.590;8.866;2023-07-02T14:39:04;29.80;46.20
18291;DHT22;9271;48.590;8.866;2023-07-02T14:41:30;30.80;43.70
18291;DHT22;9271;48.590;8.866;2023-07-02T14:44:01;32.00;43.50
18291;DHT22;9271;48.590;8.866;2023-07-02T14:46:27;32.70;40.10
18291;DHT22;9271;48.590;8.866;2023-07-02T14:48:54;31.60;40.80
18291;DHT22;9271;48.590;8.866;2023-07-02T14:51:22;31.20;42.10
18291;DHT22;9271;48.590;8.866;2023-07-02T14:53:50;31.40;41.70
18291;DHT22;9271;48.590;8.866;2023-07-02T14:56:17;29.80;44.00
18291;DHT22;9271;48.590;8.866;2023-07-02T14:58:43;30.20;44.60
18291;DHT22;9271;48.590;8.866;2023-07-02T15:01:10;30.10;43.80
18291;DHT22;9271;48.590;8.866;2023-07-02T15:03:37;28.90;43.80
18291;DHT22;9271;48.590;8.866;2023-07-02T15:06:07;29.20;44.60
18291;DHT22;9271;48.590;8.866;2023-07-02T15:08:35;30.20;44.40
18291;DHT22;9271;48.590;8.866;2023-07-02T15:11:03;31.00;41.00
18291;DHT22;9271;48.590;8.866;2023-07-02T15:13:30;29.80;41.80
18291;DHT22;9271;48.590;8.866;2023-07-02T15:15:56;29.80;42.60
18291;DHT22;9271;48.590;8.866;2023-07-02T15:20:50;29.00;43.50
18291;DHT22;9271;48.590;8.866;2023-07-02T15:23:19;29.00;43.50
18291;DHT22;9271;48.590;8.866;2023-07-02T15:25:51;29.80;42.80
18291;DHT22;9271;48.590;8.866;2023-07-02T15:28:18;29.80;43.60
18291;DHT22;9271;48.590;8.866;2023-07-02T15:30:46;29.40;42.40
18291;DHT22;9271;48.590;8.866;2023-07-02T15:33:13;28.40;42.80
18291;DHT22;9271;48.590;8.866;2023-07-02T15:35:39;28.20;45.40
18291;DHT22;9271;48.590;8.866;2023-07-02T15:38:06;28.20;43.00
18291;DHT22;9271;48.590;8.866;2023-07-02T15:40:33;27.20;44.80
18291;DHT22;9271;48.590;8.866;2023-07-02T15:43:01;28.00;46.70
18291;DHT22;9271;48.590;8.866;2023-07-02T15:45:28;28.10;43.00
18291;DHT22;9271;48.590;8.866;2023-07-02T15:47:54;27.70;42.50